Time;durP1;ratioP1;P1;durP2;ratioP2;P2;SDS_P1;SDS_P2;PMS_P1;PMS_P2;Temp;Humidity;BMP_temperature;BMP_pressure;BME280_temperature;BME280_humidity;BME280_pressure;Samples;Min_cycle;Max_cycle;Signal;HPM_P1;HPM_P2
2021/10/12 00:02:18;;;;;;;61.95;34.78;;;;;;;7.84;89.23;98859.35;2171325;81;21600;-85
2021/10/12 00:05:19;;;;;;;62.03;36.30;;;;;;;7.88;89.44;98850.25;2171342;81;21006;-85
2021/10/12 00:08:20;;;;;;;66.37;36.60;;;;;;;7.93;90.06;98850.09;2171315;81;21558;-81
2021/10/12 00:11:20;;;;;;;59.90;35.28;;;;;;;7.95;90.58;98842.95;2171245;81;21021;-84
2021/10/12 00:14:21;;;;;;;56.68;34.53;;;;;;;8.00;90.60;98839.84;2171386;81;21526;-84
2021/10/12 00:17:22;;;;;;;61.48;36.13;;;;;;;8.00;91.55;98839.84;2171257;81;21050;-85
2021/10/12 00:20:23;;;;;;;58.63;33.60;;;;;;;8.03;91.67;98836.09;2171499;81;21508;-84
2021/10/12 00:23:24;;;;;;;54.90;33.63;;;;;;;8.05;94.39;98832.86;2187553;81;21082;-84
2021/10/12 00:26:24;;;;;;;63.05;35.90;;;;;;;8.08;93.73;98832.53;2187888;81;21504;-85
2021/10/12 00:29:25;;;;;;;64.00;37.40;;;;;;;8.07;95.24;98823.08;2187848;81;21016;-84
2021/10/12 00:32:26;;;;;;;58.92;34.20;;;;;;;8.05;95.51;98825.04;2187765;81;21045;-85
2021/10/12 00:35:27;;;;;;;54.05;33.13;;;;;;;8.08;96.47;98824.70;2187980;81;21048;-84
2021/10/12 00:38:28;;;;;;;61.58;36.58;;;;;;;8.10;95.97;98827.97;2187973;81;20966;-86
2021/10/12 00:41:28;;;;;;;51.00;31.12;;;;;;;8.08;96.31;98828.62;2187921;81;21571;-86
2021/10/12 00:44:29;;;;;;;55.40;33.15;;;;;;;8.08;97.20;98827.31;2187937;81;20981;-85
2021/10/12 00:47:30;;;;;;;57.53;35.65;;;;;;;8.03;98.27;98823.05;2187907;81;21017;-85
2021/10/12 00:50:33;;;;;;;56.28;32.98;;;;;;;8.00;98.14;98822.90;2187983;81;21524;-84
2021/10/12 00:53:33;;;;;;;55.48;34.18;;;;;;;8.00;99.87;98816.38;2188564;81;21492;-86
2021/10/12 00:56:37;;;;;;;49.48;30.30;;;;;;;7.98;100.00;98813.13;2187717;81;21080;-84
2021/10/12 00:59:38;;;;;;;49.10;31.62;;;;;;;7.96;100.00;98813.78;2187956;81;21477;-86
2021/10/12 01:02:38;;;;;;;54.40;32.98;;;;;;;7.93;100.00;98810.98;2188038;81;21029;-86
2021/10/12 01:05:39;;;;;;;53.60;32.15;;;;;;;7.90;100.00;98808.70;2188114;81;21029;-85
2021/10/12 01:08:40;;;;;;;51.33;29.25;;;;;;;7.89;100.00;98803.16;2187962;81;20993;-85
2021/10/12 01:11:41;;;;;;;50.55;30.30;;;;;;;7.89;100.00;98809.68;2188428;81;21131;-80
2021/10/12 01:14:42;;;;;;;48.33;29.18;;;;;;;7.92;100.00;98808.53;2189500;81;20993;-84
2021/10/12 01:17:43;;;;;;;48.55;29.52;;;;;;;7.92;100.00;98799.41;2187723;81;20992;-83
2021/10/12 01:20:43;;;;;;;44.15;28.00;;;;;;;7.91;100.00;98801.20;2187226;81;21473;-85
2021/10/12 01:23:45;;;;;;;51.08;28.52;;;;;;;7.91;100.00;98806.42;2170964;82;21056;-85
2021/10/12 01:26:46;;;;;;;46.20;25.75;;;;;;;7.94;100.00;98800.88;2171740;81;20998;-84
2021/10/12 01:29:46;;;;;;;42.48;25.65;;;;;;;7.96;100.00;98798.95;2171207;81;21064;-84
2021/10/12 01:32:47;;;;;;;41.50;24.32;;;;;;;7.98;100.00;98792.27;2171359;81;20989;-85
2021/10/12 01:35:50;;;;;;;49.70;28.27;;;;;;;8.01;100.00;98801.55;2171270;81;20935;-85
2021/10/12 01:38:51;;;;;;;47.55;24.92;;;;;;;8.01;100.00;98793.23;2171242;81;21079;-85
2021/10/12 01:41:52;;;;;;;41.25;26.77;;;;;;;8.02;100.00;98787.53;2171054;82;20955;-84
2021/10/12 01:44:53;;;;;;;41.15;24.43;;;;;;;8.02;100.00;98787.53;2170911;81;21040;-83
2021/10/12 01:47:54;;;;;;;43.42;25.95;;;;;;;8.05;100.00;98786.73;2170995;82;21026;-85
2021/10/12 01:50:55;;;;;;;41.80;24.77;;;;;;;8.11;100.00;98781.34;2170953;81;21085;-84
2021/10/12 01:53:55;;;;;;;38.48;24.47;;;;;;;8.11;100.00;98781.34;2170997;82;21024;-84
2021/10/12 01:56:56;;;;;;;46.83;26.62;;;;;;;8.12;100.00;98787.70;2170747;81;21295;-85
2021/10/12 01:59:57;;;;;;;42.67;26.52;;;;;;;8.14;100.00;98785.77;2171553;81;21521;-84
2021/10/12 02:02:58;;;;;;;44.25;25.32;;;;;;;8.19;100.00;98778.74;2171170;81;20962;-84
2021/10/12 02:05:59;;;;;;;44.40;25.37;;;;;;;8.20;100.00;98770.75;2171211;82;21056;-83
2021/10/12 02:09:00;;;;;;;37.05;22.58;;;;;;;8.23;100.00;98765.23;2171176;81;21018;-84
2021/10/12 02:12:00;;;;;;;47.98;26.15;;;;;;;8.19;100.00;98765.21;2171314;82;20950;-83
2021/10/12 02:15:01;;;;;;;38.67;23.20;;;;;;;8.15;100.00;98758.70;2171059;81;20990;-83
2021/10/12 02:18:02;;;;;;;38.42;23.62;;;;;;;8.13;100.00;98755.91;2171199;81;21430;-85
2021/10/12 02:21:03;;;;;;;40.75;24.05;;;;;;;8.11;100.00;98749.56;2171826;80;21070;-84
2021/10/12 02:24:03;;;;;;;34.53;21.95;;;;;;;8.10;100.00;98748.42;2187528;81;22236;-84
2021/10/12 02:27:04;;;;;;;45.83;25.65;;;;;;;8.09;100.00;98742.88;2187937;81;21041;-85
2021/10/12 02:30:05;;;;;;;37.90;22.20;;;;;;;8.09;100.00;98745.49;2187678;81;21013;-84
2021/10/12 02:33:06;;;;;;;37.15;22.48;;;;;;;8.09;100.00;98746.80;2187876;81;21536;-84
2021/10/12 02:36:07;;;;;;;27.82;18.20;;;;;;;8.08;100.00;98743.37;2187712;81;21009;-84
2021/10/12 02:39:08;;;;;;;34.63;20.50;;;;;;;8.07;100.00;98740.44;2187741;81;21068;-84
2021/10/12 02:42:08;;;;;;;37.08;21.77;;;;;;;8.05;100.00;98739.80;2187692;81;21024;-83
2021/10/12 02:45:10;;;;;;;33.35;18.10;;;;;;;8.07;100.00;98740.44;2187609;81;21030;-83
2021/10/12 02:48:10;;;;;;;35.52;19.67;;;;;;;8.06;100.00;98739.30;2187651;81;20993;-85
2021/10/12 02:54:21;;;;;;;33.60;19.80;;;;;;;8.05;100.00;98731.97;2184598;79;21174;-84
2021/10/12 02:57:22;;;;;;;25.10;17.15;;;;;;;8.01;100.00;98731.95;2186225;81;21034;-84
2021/10/12 03:00:23;;;;;;;33.33;18.40;;;;;;;8.04;100.00;98729.50;2186308;81;20955;-84
2021/10/12 03:03:24;;;;;;;28.15;16.93;;;;;;;7.97;100.00;98728.87;2186409;81;21584;-85
2021/10/12 03:06:24;;;;;;;31.25;19.37;;;;;;;7.93;100.00;98728.04;2186393;81;21027;-84
2021/10/12 03:09:25;;;;;;;33.02;19.32;;;;;;;7.92;100.00;98727.71;2185908;81;21007;-84
2021/10/12 03:12:26;;;;;;;31.00;20.40;;;;;;;7.93;100.00;98724.94;2186380;81;21007;-84
2021/10/12 03:15:27;;;;;;;32.35;18.45;;;;;;;7.94;100.00;98723.14;2186252;81;21499;-84
2021/10/12 03:18:31;;;;;;;29.52;16.57;;;;;;;7.95;100.00;98716.49;2186496;81;20983;-85
2021/10/12 03:21:34;;;;;;;32.58;18.50;;;;;;;7.98;100.00;98710.12;2141701;83;21004;-85
2021/10/12 03:24:33;;;;;;;31.68;19.23;;;;;;;8.01;100.00;98714.19;2182804;81;21068;-84
2021/10/12 03:27:34;;;;;;;27.55;17.65;;;;;;;8.01;100.00;98700.66;2182824;82;21062;-85
2021/10/12 03:30:34;;;;;;;32.38;17.98;;;;;;;8.03;100.00;98705.71;2182813;82;21038;-85
2021/10/12 03:33:35;;;;;;;32.60;18.40;;;;;;;7.95;100.00;98696.94;2182932;82;20923;-86
2021/10/12 03:36:36;;;;;;;26.12;16.32;;;;;;;7.98;100.00;98700.52;2182883;82;20994;-84
2021/10/12 03:39:37;;;;;;;24.05;15.68;;;;;;;8.00;100.00;98704.25;2183716;82;21498;-85
2021/10/12 03:42:38;;;;;;;32.75;17.62;;;;;;;8.02;100.00;98704.09;2183714;82;20994;-84
2021/10/12 03:45:38;;;;;;;31.02;15.20;;;;;;;8.02;100.00;98687.14;2183906;82;20971;-84
2021/10/12 03:48:39;;;;;;;24.10;14.85;;;;;;;7.98;100.00;98679.66;2182810;82;20916;-84
2021/10/12 03:51:43;;;;;;;30.48;17.52;;;;;;;7.98;100.00;98681.45;2182670;82;21533;-84
2021/10/12 03:54:44;;;;;;;24.20;15.40;;;;;;;7.99;100.00;98679.16;2182747;82;21010;-85
2021/10/12 03:57:45;;;;;;;29.67;16.42;;;;;;;8.02;100.00;98672.80;2182505;82;20991;-84
2021/10/12 04:00:46;;;;;;;29.52;16.82;;;;;;;8.01;100.00;98669.38;2182313;82;20983;-83
2021/10/12 04:03:48;;;;;;;28.45;16.45;;;;;;;8.05;100.00;98668.58;2182548;82;20972;-86
2021/10/12 04:06:49;;;;;;;30.17;14.98;;;;;;;8.06;100.00;98675.42;2182703;82;20964;-84
2021/10/12 04:09:50;;;;;;;24.35;15.23;;;;;;;8.05;100.00;98670.69;2182699;82;21030;-83
2021/10/12 04:12:51;;;;;;;28.45;17.00;;;;;;;8.05;100.00;98669.88;2182610;82;20986;-84
2021/10/12 04:15:51;;;;;;;30.10;16.95;;;;;;;8.09;100.00;98662.85;2182661;82;21534;-84
2021/10/12 04:18:52;;;;;;;32.48;15.93;;;;;;;8.11;100.00;98667.90;2182650;82;20982;-84
2021/10/12 04:21:53;;;;;;;29.30;16.20;;;;;;;8.12;100.00;98661.20;2182494;82;21060;-84
2021/10/12 04:24:54;;;;;;;22.40;14.80;;;;;;;8.11;100.00;98657.47;2182707;82;21087;-84
2021/10/12 04:27:55;;;;;;;23.30;14.73;;;;;;;8.12;100.00;98648.66;2182625;82;20943;-84
2021/10/12 04:30:56;;;;;;;29.07;16.45;;;;;;;8.11;100.00;98653.06;2182541;82;21019;-84
2021/10/12 04:33:57;;;;;;;26.95;16.10;;;;;;;8.07;100.00;98643.95;2182684;82;21431;-84
2021/10/12 04:36:58;;;;;;;25.65;16.42;;;;;;;8.06;100.00;98648.03;2182692;82;21038;-83
2021/10/12 04:39:59;;;;;;;22.42;14.80;;;;;;;8.06;100.00;98647.55;2182561;82;21032;-84
2021/10/12 04:43:00;;;;;;;22.22;15.48;;;;;;;8.07;100.00;98654.88;2183150;82;21577;-83
2021/10/12 04:46:00;;;;;;;23.25;15.13;;;;;;;8.05;100.00;98640.70;2183039;82;20952;-82
2021/10/12 04:49:01;;;;;;;22.25;14.50;;;;;;;8.05;100.00;98642.50;2183656;82;21015;-84
2021/10/12 04:52:02;;;;;;;30.02;15.90;;;;;;;8.05;100.00;98644.62;2182688;82;21019;-83
2021/10/12 04:55:03;;;;;;;24.43;15.78;;;;;;;8.07;100.00;98640.05;2180334;82;21498;-84
2021/10/12 04:58:04;;;;;;;23.07;13.75;;;;;;;8.08;100.00;98640.36;2180388;82;20987;-84
2021/10/12 05:01:05;;;;;;;28.05;16.97;;;;;;;8.11;100.00;98639.21;2180252;82;21063;-84
2021/10/12 05:04:05;;;;;;;25.55;16.95;;;;;;;8.06;100.00;98642.82;2180330;82;20967;-85
2021/10/12 05:07:06;;;;;;;29.25;16.77;;;;;;;8.08;100.00;98640.36;2180254;82;20990;-82
2021/10/12 05:10:07;;;;;;;26.15;16.12;;;;;;;8.14;100.00;98639.72;2180337;82;20975;-86
2021/10/12 05:13:08;;;;;;;24.82;15.98;;;;;;;8.16;100.00;98627.31;2180395;82;21481;-83
2021/10/12 05:16:14;;;;;;;25.48;15.90;;;;;;;8.22;100.00;98634.95;2180550;82;21199;-84
2021/10/12 05:19:12;;;;;;;25.75;16.15;;;;;;;8.26;100.00;98638.38;2179240;82;21082;-83
2021/10/12 05:22:13;;;;;;;28.65;17.48;;;;;;;8.32;100.00;98629.55;2180525;82;20957;-86
2021/10/12 05:25:14;;;;;;;30.90;18.45;;;;;;;8.33;100.00;98642.45;2180222;82;20996;-85
2021/10/12 05:28:14;;;;;;;26.10;16.10;;;;;;;8.35;100.00;98637.09;2180276;82;21106;-83
2021/10/12 05:31:15;;;;;;;28.30;15.50;;;;;;;8.36;100.00;98640.83;2180213;82;21543;-81
2021/10/12 05:34:16;;;;;;;32.23;17.32;;;;;;;8.39;100.00;98643.58;2180169;82;20986;-83
2021/10/12 05:37:17;;;;;;;19.20;13.55;;;;;;;8.40;100.00;98637.38;2180265;82;20966;-83
2021/10/12 05:40:18;;;;;;;26.50;16.77;;;;;;;8.49;100.00;98638.98;2180347;82;21034;-83
2021/10/12 05:43:19;;;;;;;21.27;14.83;;;;;;;8.49;100.00;98633.77;2180382;82;20959;-82
2021/10/12 05:46:21;;;;;;;25.88;16.42;;;;;;;8.52;100.00;98638.18;2180236;82;21030;-82
2021/10/12 05:49:22;;;;;;;26.48;16.17;;;;;;;8.54;100.00;98637.52;2180255;82;21049;-81
2021/10/12 05:52:24;;;;;;;24.45;14.93;;;;;;;8.52;100.00;98644.70;2179789;82;21012;-81
2021/10/12 05:56:10;;;;;;;26.05;16.80;;;;;;;8.50;100.00;98636.70;2182617;82;21009;-82
2021/10/12 06:01:35;;;;;;;25.68;16.52;;;;;;;8.54;100.00;98636.70;2182537;82;21003;-82
2021/10/12 06:04:34;;;;;;;32.15;18.48;;;;;;;8.61;100.00;98645.50;2143613;83;21076;-83
2021/10/12 06:07:35;;;;;;;28.00;17.98;;;;;;;8.67;100.00;98643.50;2144251;83;20957;-82
2021/10/12 06:10:37;;;;;;;31.10;18.48;;;;;;;8.74;100.00;98640.53;2144564;83;21027;-83
2021/10/12 06:13:39;;;;;;;27.27;17.77;;;;;;;8.78;100.00;98639.73;2144009;83;21565;-82
2021/10/12 06:16:40;;;;;;;31.23;18.30;;;;;;;8.79;100.00;98638.73;2144084;83;21015;-84
2021/10/12 06:19:41;;;;;;;26.73;16.40;;;;;;;8.85;100.00;98638.04;2144389;83;20988;-83
2021/10/12 06:22:41;;;;;;;25.20;17.07;;;;;;;8.93;100.00;98639.31;2143927;83;20972;-83
2021/10/12 06:25:42;;;;;;;26.95;17.52;;;;;;;8.99;100.00;98640.44;2144426;83;21004;-81
2021/10/12 06:28:43;;;;;;;28.50;17.60;;;;;;;9.10;100.00;98640.05;2144320;83;21038;-82
2021/10/12 06:31:44;;;;;;;27.82;17.57;;;;;;;9.17;100.00;98644.10;2145316;83;21031;-82
2021/10/12 06:34:45;;;;;;;28.05;17.90;;;;;;;9.16;100.00;98642.48;2143753;83;21071;-82
2021/10/12 06:37:46;;;;;;;30.55;19.17;;;;;;;9.12;100.00;98636.77;2143973;83;21016;-81
2021/10/12 06:40:47;;;;;;;30.80;19.30;;;;;;;9.21;100.00;98639.65;2144606;83;21057;-83
2021/10/12 06:43:49;;;;;;;31.90;18.25;;;;;;;9.40;100.00;98639.69;2143945;83;21112;-85
2021/10/12 06:46:49;;;;;;;26.60;18.25;;;;;;;9.59;100.00;98639.72;2144548;83;20989;-83
2021/10/12 06:49:50;;;;;;;31.12;18.23;;;;;;;9.67;100.00;98645.70;2143963;83;21020;-82
2021/10/12 06:52:51;;;;;;;32.95;19.45;;;;;;;9.65;100.00;98639.03;2144304;83;20988;-82
2021/10/12 06:55:53;;;;;;;27.40;17.90;;;;;;;9.60;100.00;98646.11;2143117;83;21079;-84
2021/10/12 06:58:55;;;;;;;23.90;16.32;;;;;;;9.63;100.00;98648.86;2142888;83;21096;-82
2021/10/12 07:01:55;;;;;;;26.40;16.32;;;;;;;9.61;100.00;98650.84;2143282;83;21024;-82
2021/10/12 07:04:57;;;;;;;25.97;17.12;;;;;;;9.55;100.00;98651.03;2143429;83;21540;-85
2021/10/12 07:07:58;;;;;;;24.47;14.83;;;;;;;9.49;100.00;98645.19;2142999;83;21075;-82
2021/10/12 07:10:59;;;;;;;26.25;15.75;;;;;;;9.49;100.00;98644.37;2142701;83;21083;-83
2021/10/12 07:14:00;;;;;;;23.47;13.98;;;;;;;9.47;100.00;98645.05;2142877;83;20968;-82
2021/10/12 07:17:01;;;;;;;21.40;14.93;;;;;;;9.47;100.00;98647.66;2142875;83;20988;-83
2021/10/12 07:20:03;;;;;;;16.02;11.22;;;;;;;9.45;100.00;98653.56;2143038;83;21023;-83
2021/10/12 07:23:04;;;;;;;18.10;11.78;;;;;;;9.49;100.00;98652.21;2142945;83;21050;-83
2021/10/12 07:26:05;;;;;;;20.20;12.90;;;;;;;9.54;100.00;98644.67;2142910;83;21527;-82
2021/10/12 07:29:06;;;;;;;19.95;14.75;;;;;;;9.69;100.00;98649.45;2142926;83;21016;-85
2021/10/12 07:32:07;;;;;;;19.73;13.20;;;;;;;9.75;100.00;98647.45;2142975;83;21063;-86
2021/10/12 07:35:09;;;;;;;20.00;12.37;;;;;;;9.91;100.00;98646.02;2143106;83;20977;-87
2021/10/12 07:38:11;;;;;;;21.35;12.95;;;;;;;10.22;100.00;98644.60;2143007;83;20992;-88
2021/10/12 07:41:12;;;;;;;16.77;10.23;;;;;;;10.57;100.00;98641.47;2143206;83;21062;-85
2021/10/12 07:44:13;;;;;;;18.82;11.30;;;;;;;10.78;100.00;98631.87;2143175;83;21063;-88
2021/10/12 07:47:15;;;;;;;15.63;11.30;;;;;;;10.89;100.00;98628.50;2143105;83;21561;-86
2021/10/12 07:50:16;;;;;;;15.03;10.72;;;;;;;10.92;100.00;98632.05;2142987;83;21099;-83
2021/10/12 07:53:17;;;;;;;12.73;9.18;;;;;;;10.86;100.00;98630.96;2143165;83;21583;-84
2021/10/12 07:56:35;;;;;;;15.43;10.32;;;;;;;10.87;100.00;98635.70;2143990;83;20996;-84
2021/10/12 07:59:22;;;;;;;12.63;9.28;;;;;;;10.87;100.00;98627.84;2140717;82;21044;-81
2021/10/12 08:02:23;;;;;;;14.55;9.68;;;;;;;10.83;100.00;98624.79;2144549;83;20992;-81
2021/10/12 08:05:25;;;;;;;15.20;9.73;;;;;;;10.76;100.00;98624.70;2143948;83;21114;-81
2021/10/12 08:08:26;;;;;;;14.87;9.45;;;;;;;10.69;100.00;98617.75;2144364;83;21262;-82
2021/10/12 08:11:28;;;;;;;14.63;9.70;;;;;;;10.65;100.00;98617.31;2143915;83;21009;-82
2021/10/12 08:14:29;;;;;;;13.55;9.63;;;;;;;10.68;100.00;98616.13;2144472;83;21046;-84
2021/10/12 08:17:31;;;;;;;16.12;9.93;;;;;;;10.77;100.00;98611.91;2144022;83;21027;-87
2021/10/12 08:20:32;;;;;;;15.72;9.60;;;;;;;10.85;100.00;98616.74;2143982;83;21118;-85
2021/10/12 08:23:33;;;;;;;12.10;8.90;;;;;;;10.85;100.00;98608.89;2106040;85;21004;-84
2021/10/12 08:26:34;;;;;;;14.70;8.98;;;;;;;10.90;100.00;98606.55;2144570;83;20988;-85
2021/10/12 08:29:35;;;;;;;13.10;9.05;;;;;;;10.94;100.00;98615.14;2144026;83;21004;-85
2021/10/12 08:32:37;;;;;;;15.43;10.13;;;;;;;11.03;100.00;98604.06;2143960;83;21023;-88
2021/10/12 08:35:38;;;;;;;14.45;9.25;;;;;;;11.08;100.00;98610.38;2144842;83;20941;-83
2021/10/12 08:38:39;;;;;;;12.90;7.85;;;;;;;10.96;100.00;98608.41;2144343;83;21539;-82
2021/10/12 08:41:40;;;;;;;12.25;8.68;;;;;;;10.98;100.00;98609.87;2143980;83;21084;-81
2021/10/12 08:44:41;;;;;;;13.20;9.45;;;;;;;11.01;100.00;98611.30;2144560;83;21029;-82
2021/10/12 08:47:42;;;;;;;12.07;9.18;;;;;;;11.05;100.00;98613.34;2145008;83;21020;-82
2021/10/12 08:50:44;;;;;;;11.22;8.65;;;;;;;11.12;100.00;98613.42;2143587;83;21079;-83
2021/10/12 08:53:45;;;;;;;11.12;7.75;;;;;;;11.23;100.00;98603.77;2143736;83;21073;-82
2021/10/12 08:56:46;;;;;;;11.30;7.50;;;;;;;11.20;100.00;98598.91;2144454;83;21032;-83
2021/10/12 08:59:47;;;;;;;14.70;8.85;;;;;;;11.03;100.00;98604.06;2144399;83;21023;-82
2021/10/12 09:02:48;;;;;;;12.65;8.10;;;;;;;10.99;100.00;98600.20;2144440;83;21534;-82
2021/10/12 09:05:51;;;;;;;11.22;8.00;;;;;;;11.11;100.00;98608.69;2144279;83;20992;-82
2021/10/12 09:08:52;;;;;;;11.60;6.62;;;;;;;11.33;100.00;98600.33;2144480;83;21063;-82
2021/10/12 09:11:53;;;;;;;12.00;8.18;;;;;;;11.42;100.00;98594.47;2143885;83;21016;-82
2021/10/12 09:14:54;;;;;;;15.15;7.37;;;;;;;11.47;100.00;98582.13;2143716;83;20973;-82
2021/10/12 09:17:55;;;;;;;13.03;8.48;;;;;;;11.29;100.00;98597.78;2143813;83;20973;-81
2021/10/12 09:20:56;;;;;;;13.83;8.03;;;;;;;11.14;100.00;98602.26;2144365;83;21078;-81
2021/10/12 09:23:57;;;;;;;13.72;7.30;;;;;;;10.97;99.48;98596.92;2143901;83;21080;-81
2021/10/12 09:26:58;;;;;;;11.12;7.15;;;;;;;10.88;100.00;98597.56;2143984;83;21020;-83
2021/10/12 09:29:59;;;;;;;13.78;7.17;;;;;;;10.78;98.93;98595.20;2143827;83;20997;-82
2021/10/12 09:33:00;;;;;;;10.38;7.00;;;;;;;10.73;99.70;98591.03;2144576;83;21004;-82
2021/10/12 09:36:01;;;;;;;11.70;7.15;;;;;;;10.64;100.00;98588.20;2143980;83;21092;-82
2021/10/12 09:39:01;;;;;;;11.75;6.83;;;;;;;10.60;100.00;98593.47;2144050;83;21009;-82
2021/10/12 09:42:03;;;;;;;12.28;7.75;;;;;;;10.60;100.00;98589.55;2144312;83;21044;-81
2021/10/12 09:45:04;;;;;;;10.30;6.60;;;;;;;10.61;100.00;98573.37;2143511;83;21100;-82
2021/10/12 09:48:05;;;;;;;10.65;6.72;;;;;;;10.53;100.00;98575.08;2143936;83;21466;-81
2021/10/12 09:51:06;;;;;;;8.65;4.83;;;;;;;10.54;100.00;98566.23;2103565;85;21294;-82
2021/10/12 09:54:07;;;;;;;8.65;6.00;;;;;;;10.66;100.00;98563.14;2155978;82;21057;-82
2021/10/12 09:57:09;;;;;;;9.78;5.90;;;;;;;10.82;100.00;98562.43;2192904;81;21038;-83
2021/10/12 10:00:10;;;;;;;9.80;3.77;;;;;;;10.94;99.02;98549.66;2193167;81;21046;-82
2021/10/12 10:03:11;;;;;;;6.42;2.98;;;;;;;10.96;95.19;98567.30;2193205;81;21013;-85
2021/10/12 10:06:12;;;;;;;3.92;2.85;;;;;;;11.01;93.67;98554.47;2193159;81;20975;-85
2021/10/12 10:09:12;;;;;;;5.15;3.27;;;;;;;11.13;94.13;98561.33;2193196;81;21066;-85
2021/10/12 10:12:13;;;;;;;8.80;4.08;;;;;;;11.25;93.20;98557.23;2193189;81;20974;-86
2021/10/12 10:15:14;;;;;;;6.47;3.40;;;;;;;11.29;94.05;98558.47;2193192;81;21533;-85
2021/10/12 10:18:15;;;;;;;7.20;3.27;;;;;;;11.35;93.22;98549.05;2193127;81;21488;-85
2021/10/12 10:21:16;;;;;;;5.45;3.15;;;;;;;11.33;93.31;98544.48;2192998;81;21046;-84
2021/10/12 10:24:28;;;;;;;6.70;3.12;;;;;;;11.31;92.44;98546.48;2193313;81;21568;-84
2021/10/12 10:27:23;;;;;;;9.05;4.08;;;;;;;11.25;91.36;98548.56;2191266;81;21079;-85
2021/10/12 10:30:24;;;;;;;7.85;3.58;;;;;;;11.19;91.78;98547.99;2193097;81;21047;-88
2021/10/12 10:33:25;;;;;;;4.17;2.87;;;;;;;11.11;90.38;98547.61;2193284;81;20967;-82
2021/10/12 10:36:26;;;;;;;8.50;3.42;;;;;;;11.07;91.58;98545.87;2193239;81;21022;-83
2021/10/12 10:39:27;;;;;;;8.60;4.00;;;;;;;11.10;90.22;98542.88;2193131;81;20939;-83
2021/10/12 10:42:28;;;;;;;6.55;3.77;;;;;;;11.09;89.71;98533.39;2193322;81;20951;-82
2021/10/12 10:45:29;;;;;;;6.60;3.25;;;;;;;11.11;90.06;98531.89;2193347;81;21007;-84
2021/10/12 10:48:30;;;;;;;8.13;3.30;;;;;;;11.43;88.81;98524.02;2193179;81;20979;-83
2021/10/12 10:51:31;;;;;;;4.55;2.87;;;;;;;11.43;88.81;98524.02;2193035;81;21530;-83
2021/10/12 10:54:32;;;;;;;4.67;2.72;;;;;;;11.54;86.66;98524.81;2190181;81;21080;-83
2021/10/12 10:57:34;;;;;;;3.52;2.50;;;;;;;11.68;87.13;98521.27;2182543;82;21080;-83
2021/10/12 11:00:35;;;;;;;4.03;2.27;;;;;;;11.72;80.50;98516.98;2182500;82;21016;-84
2021/10/12 11:03:36;;;;;;;6.15;2.55;;;;;;;11.70;81.26;98515.83;2182414;82;20991;-82
2021/10/12 11:06:37;;;;;;;4.75;2.80;;;;;;;11.69;83.58;98505.03;2182414;82;20932;-84
2021/10/12 11:09:39;;;;;;;4.10;2.30;;;;;;;11.72;83.92;98506.48;2182578;82;21125;-84
2021/10/12 11:12:40;;;;;;;7.58;1.57;;;;;;;11.65;82.03;98503.81;2182369;82;21019;-84
2021/10/12 11:15:41;;;;;;;4.65;2.30;;;;;;;11.56;81.37;98498.40;2182553;82;21526;-82
2021/10/12 11:18:42;;;;;;;7.15;2.70;;;;;;;11.55;82.40;98502.83;2182786;82;20995;-82
2021/10/12 11:21:44;;;;;;;5.92;2.50;;;;;;;11.48;79.38;98511.14;2182737;82;21439;-84
2021/10/12 11:24:45;;;;;;;4.12;2.10;;;;;;;11.35;79.67;98508.43;2184183;82;21435;-84
2021/10/12 11:27:46;;;;;;;4.42;2.15;;;;;;;11.26;76.42;98504.31;2182702;82;21026;-83
2021/10/12 11:30:48;;;;;;;6.53;3.25;;;;;;;11.19;77.94;98495.58;2182661;82;21007;-85
2021/10/12 11:33:49;;;;;;;18.92;15.10;;;;;;;11.15;79.76;98483.34;2182658;82;20971;-81
2021/10/12 11:36:50;;;;;;;8.10;4.53;;;;;;;11.21;81.35;98486.52;2182598;82;21058;-84
2021/10/12 11:39:51;;;;;;;2.55;2.25;;;;;;;11.26;81.25;98474.98;2183136;82;21015;-83
2021/10/12 11:42:52;;;;;;;3.50;2.15;;;;;;;11.31;79.96;98467.85;2183753;82;21066;-84
2021/10/12 11:45:54;;;;;;;2.65;2.25;;;;;;;11.31;78.95;98453.44;2182646;82;20990;-84
2021/10/12 11:48:57;;;;;;;9.40;2.92;;;;;;;11.37;79.21;98451.38;2182580;82;21533;-84
2021/10/12 11:51:58;;;;;;;4.47;2.58;;;;;;;11.44;79.53;98440.95;2182925;82;20984;-79
2021/10/12 11:54:59;;;;;;;6.15;3.67;;;;;;;11.52;79.27;98445.54;2174446;81;21044;-79
2021/10/12 11:58:00;;;;;;;2.05;1.60;;;;;;;11.66;80.18;98440.67;2153888;83;21110;-84
2021/10/12 12:01:01;;;;;;;3.40;2.70;;;;;;;11.79;74.32;98433.87;2151424;83;21012;-84
2021/10/12 12:04:02;;;;;;;24.07;20.08;;;;;;;11.90;76.20;98436.00;2151722;83;21050;-84
2021/10/12 12:07:03;;;;;;;5.25;3.50;;;;;;;12.09;75.37;98435.78;2151516;83;21048;-84
2021/10/12 12:10:04;;;;;;;3.22;1.95;;;;;;;12.30;73.63;98441.41;2151609;83;21039;-84
2021/10/12 12:13:06;;;;;;;5.35;2.27;;;;;;;12.23;74.10;98461.06;2152010;83;20976;-85
2021/10/12 12:16:07;;;;;;;3.45;1.98;;;;;;;12.23;74.10;98461.06;2151842;83;21026;-85
2021/10/12 12:19:08;;;;;;;6.20;3.40;;;;;;;11.99;75.67;98454.52;2151642;83;21047;-84
2021/10/12 12:22:09;;;;;;;9.10;3.67;;;;;;;11.87;77.28;98441.61;2151691;83;21156;-83
2021/10/12 12:25:10;;;;;;;13.50;4.25;;;;;;;11.86;78.83;98436.88;2151762;83;21031;-85
2021/10/12 12:28:11;;;;;;;10.40;3.90;;;;;;;11.85;78.69;98435.76;2152133;83;21534;-86
2021/10/12 12:31:12;;;;;;;9.40;3.05;;;;;;;11.76;78.50;98431.14;2151584;83;21055;-85
2021/10/12 12:34:14;;;;;;;8.13;3.62;;;;;;;11.60;78.19;98431.44;2151970;83;21035;-84
2021/10/12 12:37:15;;;;;;;10.05;4.55;;;;;;;11.52;78.83;98429.81;2151745;83;20980;-85
2021/10/12 12:40:16;;;;;;;10.00;5.12;;;;;;;11.42;78.94;98422.76;2151753;83;21555;-88
2021/10/12 12:43:17;;;;;;;5.40;2.83;;;;;;;11.36;79.03;98416.99;2151631;83;21606;-85
2021/10/12 12:46:18;;;;;;;5.62;3.10;;;;;;;11.30;78.92;98408.07;2152023;83;21079;-84
2021/10/12 12:49:19;;;;;;;3.60;2.17;;;;;;;11.27;79.72;98406.34;2151635;83;21055;-86
2021/10/12 12:52:21;;;;;;;5.35;2.55;;;;;;;11.25;79.78;98413.59;2151664;83;21023;-83
2021/10/12 12:55:22;;;;;;;4.60;2.00;;;;;;;11.25;80.20;98404.42;2162647;81;21059;-85
2021/10/12 12:58:23;;;;;;;5.30;1.90;;;;;;;11.24;79.42;98392.29;2182702;82;21502;-85
2021/10/12 13:01:25;;;;;;;2.52;2.20;;;;;;;11.22;79.18;98384.63;2182515;82;21014;-85
2021/10/12 13:04:26;;;;;;;2.80;1.98;;;;;;;11.20;78.69;98386.63;2182663;82;21071;-85
2021/10/12 13:07:27;;;;;;;6.53;2.85;;;;;;;11.18;79.30;98383.91;2182716;82;20979;-83
2021/10/12 13:10:28;;;;;;;6.05;3.20;;;;;;;11.18;79.33;98383.91;2182730;82;20986;-87
2021/10/12 13:13:29;;;;;;;2.77;2.02;;;;;;;11.16;78.71;98373.62;2182977;82;20936;-83
2021/10/12 13:16:30;;;;;;;5.78;2.87;;;;;;;11.18;77.36;98370.80;2183228;82;20924;-83
2021/10/12 13:19:30;;;;;;;4.67;2.47;;;;;;;11.16;78.20;98368.38;2183514;82;20968;-80
2021/10/12 13:22:31;;;;;;;7.85;2.42;;;;;;;11.14;78.59;98369.55;2184285;82;20935;-79
2021/10/12 13:25:32;;;;;;;2.37;2.17;;;;;;;11.12;78.37;98371.05;2185107;82;20947;-79
2021/10/12 13:28:33;;;;;;;4.95;2.10;;;;;;;11.09;78.19;98369.63;2183234;82;20932;-84
2021/10/12 13:31:36;;;;;;;6.97;3.47;;;;;;;11.07;78.09;98368.21;2183160;82;21051;-83
2021/10/12 13:34:36;;;;;;;8.55;2.72;;;;;;;11.09;77.29;98362.27;2182718;82;21071;-87
2021/10/12 13:40:44;;;;;;;4.45;2.20;;;;;;;11.16;76.23;98357.89;2103409;84;21032;-86
2021/10/12 13:43:46;;;;;;;3.35;2.60;;;;;;;11.15;76.15;98348.89;2116577;84;21118;-86
2021/10/12 13:46:47;;;;;;;4.60;2.00;;;;;;;11.18;76.03;98350.64;2116502;84;21104;-85
2021/10/12 13:49:47;;;;;;;10.38;5.47;;;;;;;11.22;75.46;98350.55;2116694;84;21043;-87
2021/10/12 13:52:48;;;;;;;5.42;3.15;;;;;;;11.26;76.29;98341.83;2116602;84;21137;-87
2021/10/12 13:55:49;;;;;;;3.98;2.83;;;;;;;11.28;76.18;98345.87;2116192;84;21060;-87
2021/10/12 13:58:50;;;;;;;7.17;3.20;;;;;;;11.36;76.37;98344.41;2116625;84;21164;-85
2021/10/12 14:01:51;;;;;;;5.60;3.05;;;;;;;11.46;76.47;98345.36;2116723;84;20985;-87
2021/10/12 14:04:52;;;;;;;4.28;3.50;;;;;;;11.54;75.62;98346.52;2116598;84;21007;-86
2021/10/12 14:07:53;;;;;;;4.75;2.30;;;;;;;11.53;75.47;98348.83;2116696;84;21035;-86